sensor_id;sensor_type;location;lat;lon;timestamp;P1;durP1;ratioP1;P2;durP2;ratioP2
11829;SDS011;5972;42.134;24.718;2023-05-07T00:01:44;11.52;;;5.65;;
11829;SDS011;5972;42.134;24.718;2023-05-07T00:04:11;11.80;;;6.20;;
11829;SDS011;5972;42.134;24.718;2023-05-07T00:06:38;8.25;;;5.70;;
11829;SDS011;5972;42.134;24.718;2023-05-07T00:09:04;9.50;;;5.30;;
11829;SDS011;5972;42.134;24.718;2023-05-07T00:11:33;9.88;;;5.38;;
11829;SDS011;5972;42.134;24.718;2023-05-07T00:14:01;8.57;;;5.25;;
11829;SDS011;5972;42.134;24.718;2023-05-07T00:16:27;9.88;;;4.82;;
11829;SDS011;5972;42.134;24.718;2023-05-07T00:18:54;8.77;;;5.13;;
11829;SDS011;5972;42.134;24.718;2023-05-07T00:21:20;5.30;;;4.80;;
11829;SDS011;5972;42.134;24.718;2023-05-07T00:23:47;9.13;;;4.85;;
11829;SDS011;5972;42.134;24.718;2023-05-07T00:26:13;6.40;;;5.10;;
11829;SDS011;5972;42.134;24.718;2023-05-07T00:28:40;8.43;;;4.47;;
11829;SDS011;5972;42.134;24.718;2023-05-07T00:31:08;8.10;;;4.50;;
11829;SDS011;5972;42.134;24.718;2023-05-07T00:33:35;6.45;;;4.38;;
11829;SDS011;5972;42.134;24.718;2023-05-07T00:36:01;6.72;;;4.68;;
11829;SDS011;5972;42.134;24.718;2023-05-07T00:38:28;7.57;;;5.13;;
11829;SDS011;5972;42.134;24.718;2023-05-07T00:40:54;6.07;;;4.05;;
11829;SDS011;5972;42.134;24.718;2023-05-07T00:43:21;5.72;;;4.22;;
11829;SDS011;5972;42.134;24.718;2023-05-07T00:45:47;7.82;;;4.45;;
11829;SDS011;5972;42.134;24.718;2023-05-07T00:48:15;6.63;;;4.30;;
11829;SDS011;5972;42.134;24.718;2023-05-07T00:50:42;7.10;;;4.30;;
11829;SDS011;5972;42.134;24.718;2023-05-07T00:53:08;6.38;;;4.40;;
11829;SDS011;5972;42.134;24.718;2023-05-07T00:55:35;5.63;;;4.43;;
11829;SDS011;5972;42.134;24.718;2023-05-07T00:58:01;8.10;;;4.75;;
11829;SDS011;5972;42.134;24.718;2023-05-07T01:00:28;4.47;;;3.92;;
11829;SDS011;5972;42.134;24.718;2023-05-07T01:02:55;4.88;;;4.38;;
11829;SDS011;5972;42.134;24.718;2023-05-07T01:05:23;4.55;;;4.15;;
11829;SDS011;5972;42.134;24.718;2023-05-07T01:07:50;6.20;;;4.28;;
11829;SDS011;5972;42.134;24.718;2023-05-07T01:10:18;6.63;;;4.13;;
11829;SDS011;5972;42.134;24.718;2023-05-07T01:12:44;4.78;;;3.95;;
11829;SDS011;5972;42.134;24.718;2023-05-07T01:15:12;5.95;;;4.40;;
11829;SDS011;5972;42.134;24.718;2023-05-07T01:17:40;8.23;;;4.00;;
11829;SDS011;5972;42.134;24.718;2023-05-07T01:20:07;7.57;;;3.95;;
11829;SDS011;5972;42.134;24.718;2023-05-07T01:22:36;6.50;;;3.70;;
11829;SDS011;5972;42.134;24.718;2023-05-07T01:25:03;4.68;;;4.05;;
11829;SDS011;5972;42.134;24.718;2023-05-07T01:27:30;7.05;;;4.30;;
11829;SDS011;5972;42.134;24.718;2023-05-07T01:29:58;8.15;;;4.13;;
11829;SDS011;5972;42.134;24.718;2023-05-07T01:32:26;5.85;;;4.28;;
11829;SDS011;5972;42.134;24.718;2023-05-07T01:34:55;6.40;;;3.97;;
11829;SDS011;5972;42.134;24.718;2023-05-07T01:37:21;4.90;;;4.38;;
11829;SDS011;5972;42.134;24.718;2023-05-07T01:39:50;6.10;;;3.97;;
11829;SDS011;5972;42.134;24.718;2023-05-07T01:42:16;9.23;;;4.40;;
11829;SDS011;5972;42.134;24.718;2023-05-07T01:44:43;4.80;;;4.05;;
11829;SDS011;5972;42.134;24.718;2023-05-07T01:47:09;6.30;;;4.22;;
11829;SDS011;5972;42.134;24.718;2023-05-07T01:49:36;6.93;;;5.18;;
11829;SDS011;5972;42.134;24.718;2023-05-07T01:52:04;5.22;;;4.70;;
11829;SDS011;5972;42.134;24.718;2023-05-07T01:54:30;10.23;;;4.50;;
11829;SDS011;5972;42.134;24.718;2023-05-07T01:56:58;5.05;;;4.65;;
11829;SDS011;5972;42.134;24.718;2023-05-07T01:59:25;10.38;;;5.07;;
11829;SDS011;5972;42.134;24.718;2023-05-07T02:01:51;9.80;;;5.00;;
11829;SDS011;5972;42.134;24.718;2023-05-07T02:04:18;6.40;;;4.53;;
11829;SDS011;5972;42.134;24.718;2023-05-07T02:06:44;9.90;;;4.97;;
11829;SDS011;5972;42.134;24.718;2023-05-07T02:09:11;5.88;;;4.70;;
11829;SDS011;5972;42.134;24.718;2023-05-07T02:11:38;6.50;;;4.95;;
11829;SDS011;5972;42.134;24.718;2023-05-07T02:14:06;7.07;;;4.75;;
11829;SDS011;5972;42.134;24.718;2023-05-07T02:16:32;5.18;;;4.68;;
11829;SDS011;5972;42.134;24.718;2023-05-07T02:18:58;6.32;;;5.20;;
11829;SDS011;5972;42.134;24.718;2023-05-07T02:21:25;8.57;;;4.95;;
11829;SDS011;5972;42.134;24.718;2023-05-07T02:23:51;10.82;;;5.00;;
11829;SDS011;5972;42.134;24.718;2023-05-07T02:26:18;6.60;;;4.93;;
11829;SDS011;5972;42.134;24.718;2023-05-07T02:28:44;5.35;;;4.85;;
11829;SDS011;5972;42.134;24.718;2023-05-07T02:31:12;7.13;;;4.88;;
11829;SDS011;5972;42.134;24.718;2023-05-07T02:33:39;6.57;;;4.90;;
11829;SDS011;5972;42.134;24.718;2023-05-07T02:36:05;7.70;;;5.55;;
11829;SDS011;5972;42.134;24.718;2023-05-07T02:38:32;8.18;;;5.30;;
11829;SDS011;5972;42.134;24.718;2023-05-07T02:40:59;5.40;;;4.90;;
11829;SDS011;5972;42.134;24.718;2023-05-07T02:43:25;7.07;;;5.15;;
11829;SDS011;5972;42.134;24.718;2023-05-07T02:45:59;6.38;;;5.00;;
11829;SDS011;5972;42.134;24.718;2023-05-07T02:48:27;8.98;;;5.70;;
11829;SDS011;5972;42.134;24.718;2023-05-07T02:50:54;8.45;;;5.75;;
11829;SDS011;5972;42.134;24.718;2023-05-07T02:53:20;9.02;;;5.35;;
11829;SDS011;5972;42.134;24.718;2023-05-07T02:55:47;9.70;;;5.80;;
11829;SDS011;5972;42.134;24.718;2023-05-07T02:58:13;8.98;;;5.75;;
11829;SDS011;5972;42.134;24.718;2023-05-07T03:00:39;7.80;;;6.13;;
11829;SDS011;5972;42.134;24.718;2023-05-07T03:03:06;8.07;;;6.13;;
11829;SDS011;5972;42.134;24.718;2023-05-07T03:05:34;9.00;;;6.32;;
11829;SDS011;5972;42.134;24.718;2023-05-07T03:08:01;11.50;;;6.55;;
11829;SDS011;5972;42.134;24.718;2023-05-07T03:10:29;8.15;;;6.57;;
11829;SDS011;5972;42.134;24.718;2023-05-07T03:12:55;10.43;;;6.70;;
11829;SDS011;5972;42.134;24.718;2023-05-07T03:15:21;10.95;;;6.32;;
11829;SDS011;5972;42.134;24.718;2023-05-07T03:17:48;6.85;;;6.20;;
11829;SDS011;5972;42.134;24.718;2023-05-07T03:20:15;8.65;;;6.47;;
11829;SDS011;5972;42.134;24.718;2023-05-07T03:22:42;10.32;;;7.10;;
11829;SDS011;5972;42.134;24.718;2023-05-07T03:25:09;8.25;;;6.00;;
11829;SDS011;5972;42.134;24.718;2023-05-07T03:27:36;9.27;;;6.85;;
11829;SDS011;5972;42.134;24.718;2023-05-07T03:30:02;9.32;;;7.03;;
11829;SDS011;5972;42.134;24.718;2023-05-07T03:32:29;9.32;;;6.70;;
11829;SDS011;5972;42.134;24.718;2023-05-07T03:34:55;9.30;;;6.95;;
11829;SDS011;5972;42.134;24.718;2023-05-07T03:37:22;8.25;;;7.35;;
11829;SDS011;5972;42.134;24.718;2023-05-07T03:39:49;7.18;;;6.35;;
11829;SDS011;5972;42.134;24.718;2023-05-07T03:42:16;7.97;;;6.88;;
11829;SDS011;5972;42.134;24.718;2023-05-07T03:44:42;8.73;;;7.28;;
11829;SDS011;5972;42.134;24.718;2023-05-07T03:47:09;7.93;;;7.13;;
11829;SDS011;5972;42.134;24.718;2023-05-07T03:49:36;7.75;;;6.82;;
11829;SDS011;5972;42.134;24.718;2023-05-07T03:52:03;9.80;;;7.13;;
11829;SDS011;5972;42.134;24.718;2023-05-07T03:54:29;8.55;;;6.68;;
11829;SDS011;5972;42.134;24.718;2023-05-07T03:56:57;11.63;;;7.13;;
11829;SDS011;5972;42.134;24.718;2023-05-07T03:59:24;8.70;;;6.50;;
11829;SDS011;5972;42.134;24.718;2023-05-07T04:01:50;7.05;;;6.35;;
11829;SDS011;5972;42.134;24.718;2023-05-07T04:04:17;8.35;;;6.65;;
11829;SDS011;5972;42.134;24.718;2023-05-07T04:06:43;7.80;;;6.10;;
11829;SDS011;5972;42.134;24.718;2023-05-07T04:09:10;9.00;;;6.22;;
11829;SDS011;5972;42.134;24.718;2023-05-07T04:11:36;8.45;;;6.63;;
11829;SDS011;5972;42.134;24.718;2023-05-07T04:14:06;7.85;;;5.85;;
11829;SDS011;5972;42.134;24.718;2023-05-07T04:16:34;6.65;;;5.82;;
11829;SDS011;5972;42.134;24.718;2023-05-07T04:19:00;7.47;;;5.60;;
11829;SDS011;5972;42.134;24.718;2023-05-07T04:21:27;8.18;;;5.85;;
11829;SDS011;5972;42.134;24.718;2023-05-07T04:23:53;8.30;;;5.35;;
11829;SDS011;5972;42.134;24.718;2023-05-07T04:26:19;6.50;;;5.43;;
11829;SDS011;5972;42.134;24.718;2023-05-07T04:28:46;6.70;;;5.85;;
11829;SDS011;5972;42.134;24.718;2023-05-07T04:31:14;6.20;;;5.60;;
11829;SDS011;5972;42.134;24.718;2023-05-07T04:33:40;7.72;;;5.43;;
11829;SDS011;5972;42.134;24.718;2023-05-07T04:36:07;7.45;;;5.03;;
11829;SDS011;5972;42.134;24.718;2023-05-07T04:38:34;6.13;;;4.82;;
11829;SDS011;5972;42.134;24.718;2023-05-07T04:41:02;6.68;;;5.05;;
11829;SDS011;5972;42.134;24.718;2023-05-07T04:43:29;7.32;;;5.20;;
11829;SDS011;5972;42.134;24.718;2023-05-07T04:45:55;7.90;;;5.43;;
11829;SDS011;5972;42.134;24.718;2023-05-07T04:48:23;5.68;;;5.15;;
11829;SDS011;5972;42.134;24.718;2023-05-07T04:50:50;7.53;;;5.55;;
11829;SDS011;5972;42.134;24.718;2023-05-07T04:53:16;10.65;;;5.18;;
11829;SDS011;5972;42.134;24.718;2023-05-07T04:55:43;5.50;;;4.65;;
11829;SDS011;5972;42.134;24.718;2023-05-07T04:58:10;6.32;;;5.15;;
11829;SDS011;5972;42.134;24.718;2023-05-07T05:00:36;6.68;;;4.70;;
11829;SDS011;5972;42.134;24.718;2023-05-07T05:03:03;4.90;;;4.50;;
11829;SDS011;5972;42.134;24.718;2023-05-07T05:05:31;9.40;;;4.90;;
11829;SDS011;5972;42.134;24.718;2023-05-07T05:07:58;7.68;;;4.38;;
11829;SDS011;5972;42.134;24.718;2023-05-07T05:10:24;5.38;;;4.60;;
11829;SDS011;5972;42.134;24.718;2023-05-07T05:12:51;10.70;;;4.30;;
11829;SDS011;5972;42.134;24.718;2023-05-07T05:15:17;5.22;;;4.63;;
11829;SDS011;5972;42.134;24.718;2023-05-07T05:17:44;8.35;;;4.50;;
11829;SDS011;5972;42.134;24.718;2023-05-07T05:20:10;7.78;;;4.78;;
11829;SDS011;5972;42.134;24.718;2023-05-07T05:22:38;4.75;;;4.05;;
11829;SDS011;5972;42.134;24.718;2023-05-07T05:25:05;5.07;;;4.50;;
11829;SDS011;5972;42.134;24.718;2023-05-07T05:27:31;5.32;;;4.38;;
11829;SDS011;5972;42.134;24.718;2023-05-07T05:29:58;7.18;;;4.53;;
11829;SDS011;5972;42.134;24.718;2023-05-07T05:32:24;6.43;;;4.63;;
11829;SDS011;5972;42.134;24.718;2023-05-07T05:34:51;7.82;;;4.82;;
11829;SDS011;5972;42.134;24.718;2023-05-07T05:37:17;7.05;;;4.70;;
11829;SDS011;5972;42.134;24.718;2023-05-07T05:39:45;6.00;;;4.47;;
11829;SDS011;5972;42.134;24.718;2023-05-07T05:42:11;8.27;;;4.43;;
11829;SDS011;5972;42.134;24.718;2023-05-07T05:44:38;6.45;;;4.60;;
11829;SDS011;5972;42.134;24.718;2023-05-07T05:47:05;11.35;;;4.65;;
11829;SDS011;5972;42.134;24.718;2023-05-07T05:49:31;5.80;;;5.10;;
11829;SDS011;5972;42.134;24.718;2023-05-07T05:51:57;6.70;;;4.43;;
11829;SDS011;5972;42.134;24.718;2023-05-07T05:54:24;7.32;;;5.22;;
11829;SDS011;5972;42.134;24.718;2023-05-07T05:56:52;4.88;;;4.43;;
11829;SDS011;5972;42.134;24.718;2023-05-07T05:59:18;6.13;;;4.32;;
11829;SDS011;5972;42.134;24.718;2023-05-07T06:01:45;7.22;;;4.68;;
11829;SDS011;5972;42.134;24.718;2023-05-07T06:04:11;6.63;;;4.80;;
11829;SDS011;5972;42.134;24.718;2023-05-07T06:06:38;7.28;;;4.45;;
11829;SDS011;5972;42.134;24.718;2023-05-07T06:09:04;5.30;;;4.43;;
11829;SDS011;5972;42.134;24.718;2023-05-07T06:11:31;4.80;;;3.90;;
11829;SDS011;5972;42.134;24.718;2023-05-07T06:13:58;8.52;;;4.57;;
11829;SDS011;5972;42.134;24.718;2023-05-07T06:16:25;7.25;;;4.22;;
11829;SDS011;5972;42.134;24.718;2023-05-07T06:18:51;6.70;;;4.45;;
11829;SDS011;5972;42.134;24.718;2023-05-07T06:21:18;5.95;;;4.47;;
11829;SDS011;5972;42.134;24.718;2023-05-07T06:23:44;5.30;;;4.40;;
11829;SDS011;5972;42.134;24.718;2023-05-07T06:26:11;7.10;;;4.70;;
11829;SDS011;5972;42.134;24.718;2023-05-07T06:28:37;6.80;;;4.30;;
11829;SDS011;5972;42.134;24.718;2023-05-07T06:31:18;5.57;;;4.70;;
11829;SDS011;5972;42.134;24.718;2023-05-07T06:33:46;7.25;;;4.40;;
11829;SDS011;5972;42.134;24.718;2023-05-07T06:36:13;5.20;;;4.60;;
11829;SDS011;5972;42.134;24.718;2023-05-07T06:38:39;7.97;;;4.60;;
11829;SDS011;5972;42.134;24.718;2023-05-07T06:41:06;5.60;;;4.57;;
11829;SDS011;5972;42.134;24.718;2023-05-07T06:43:32;8.77;;;5.30;;
11829;SDS011;5972;42.134;24.718;2023-05-07T06:46:01;9.75;;;5.30;;
11829;SDS011;5972;42.134;24.718;2023-05-07T06:48:28;9.15;;;4.60;;
11829;SDS011;5972;42.134;24.718;2023-05-07T06:50:55;7.43;;;4.75;;
11829;SDS011;5972;42.134;24.718;2023-05-07T06:53:22;5.82;;;4.90;;
11829;SDS011;5972;42.134;24.718;2023-05-07T06:55:49;7.38;;;4.90;;
11829;SDS011;5972;42.134;24.718;2023-05-07T06:58:15;6.28;;;4.80;;
11829;SDS011;5972;42.134;24.718;2023-05-07T07:00:42;5.90;;;5.00;;
11829;SDS011;5972;42.134;24.718;2023-05-07T07:03:08;5.50;;;4.70;;
11829;SDS011;5972;42.134;24.718;2023-05-07T07:05:36;5.53;;;5.03;;
11829;SDS011;5972;42.134;24.718;2023-05-07T07:08:03;6.38;;;5.40;;
11829;SDS011;5972;42.134;24.718;2023-05-07T07:10:29;7.63;;;5.20;;
11829;SDS011;5972;42.134;24.718;2023-05-07T07:12:56;8.18;;;5.00;;
11829;SDS011;5972;42.134;24.718;2023-05-07T07:15:22;6.25;;;5.07;;
11829;SDS011;5972;42.134;24.718;2023-05-07T07:17:50;8.88;;;5.00;;
11829;SDS011;5972;42.134;24.718;2023-05-07T07:20:16;7.85;;;5.47;;
11829;SDS011;5972;42.134;24.718;2023-05-07T07:22:44;6.68;;;4.60;;
11829;SDS011;5972;42.134;24.718;2023-05-07T07:25:10;5.80;;;4.90;;
11829;SDS011;5972;42.134;24.718;2023-05-07T07:27:37;5.30;;;4.40;;
11829;SDS011;5972;42.134;24.718;2023-05-07T07:30:06;7.00;;;4.85;;
11829;SDS011;5972;42.134;24.718;2023-05-07T07:32:32;19.83;;;4.53;;
11829;SDS011;5972;42.134;24.718;2023-05-07T07:35:02;6.00;;;4.28;;
11829;SDS011;5972;42.134;24.718;2023-05-07T07:37:29;5.65;;;5.03;;
11829;SDS011;5972;42.134;24.718;2023-05-07T07:40:00;5.13;;;4.22;;
11829;SDS011;5972;42.134;24.718;2023-05-07T07:42:28;5.20;;;4.70;;
11829;SDS011;5972;42.134;24.718;2023-05-07T07:44:55;5.93;;;5.22;;
11829;SDS011;5972;42.134;24.718;2023-05-07T07:47:22;6.22;;;4.60;;
11829;SDS011;5972;42.134;24.718;2023-05-07T07:49:48;8.10;;;5.22;;
11829;SDS011;5972;42.134;24.718;2023-05-07T07:52:15;5.63;;;4.97;;
11829;SDS011;5972;42.134;24.718;2023-05-07T07:54:41;6.15;;;5.15;;
11829;SDS011;5972;42.134;24.718;2023-05-07T07:57:10;9.57;;;5.32;;
11829;SDS011;5972;42.134;24.718;2023-05-07T07:59:36;5.50;;;4.53;;
11829;SDS011;5972;42.134;24.718;2023-05-07T08:02:03;6.93;;;4.93;;
11829;SDS011;5972;42.134;24.718;2023-05-07T08:04:31;8.30;;;4.82;;
11829;SDS011;5972;42.134;24.718;2023-05-07T08:06:58;7.82;;;5.13;;
11829;SDS011;5972;42.134;24.718;2023-05-07T08:09:26;5.75;;;5.22;;
11829;SDS011;5972;42.134;24.718;2023-05-07T08:11:52;8.95;;;5.18;;
11829;SDS011;5972;42.134;24.718;2023-05-07T08:14:22;6.13;;;5.00;;
11829;SDS011;5972;42.134;24.718;2023-05-07T08:16:48;5.15;;;4.65;;
11829;SDS011;5972;42.134;24.718;2023-05-07T08:19:15;6.57;;;5.43;;
11829;SDS011;5972;42.134;24.718;2023-05-07T08:21:41;6.28;;;4.65;;
11829;SDS011;5972;42.134;24.718;2023-05-07T08:24:12;5.65;;;4.10;;
11829;SDS011;5972;42.134;24.718;2023-05-07T08:26:39;5.00;;;4.22;;
11829;SDS011;5972;42.134;24.718;2023-05-07T08:29:05;7.15;;;4.45;;
11829;SDS011;5972;42.134;24.718;2023-05-07T08:31:33;5.32;;;3.75;;
11829;SDS011;5972;42.134;24.718;2023-05-07T08:34:00;5.03;;;3.83;;
11829;SDS011;5972;42.134;24.718;2023-05-07T08:36:26;7.57;;;3.90;;
11829;SDS011;5972;42.134;24.718;2023-05-07T08:38:53;5.25;;;3.78;;
11829;SDS011;5972;42.134;24.718;2023-05-07T08:41:20;5.18;;;4.20;;
11829;SDS011;5972;42.134;24.718;2023-05-07T08:43:47;7.43;;;3.90;;
11829;SDS011;5972;42.134;24.718;2023-05-07T08:46:15;7.80;;;4.68;;
11829;SDS011;5972;42.134;24.718;2023-05-07T08:48:44;4.60;;;3.83;;
11829;SDS011;5972;42.134;24.718;2023-05-07T08:51:12;7.72;;;4.15;;
11829;SDS011;5972;42.134;24.718;2023-05-07T08:53:39;5.15;;;3.85;;
11829;SDS011;5972;42.134;24.718;2023-05-07T08:56:08;5.72;;;3.60;;
11829;SDS011;5972;42.134;24.718;2023-05-07T08:58:35;6.05;;;4.05;;
11829;SDS011;5972;42.134;24.718;2023-05-07T09:01:01;4.43;;;3.28;;
11829;SDS011;5972;42.134;24.718;2023-05-07T09:03:30;4.22;;;3.50;;
11829;SDS011;5972;42.134;24.718;2023-05-07T09:05:58;4.75;;;3.40;;
11829;SDS011;5972;42.134;24.718;2023-05-07T09:08:24;5.50;;;3.10;;
11829;SDS011;5972;42.134;24.718;2023-05-07T09:10:52;5.65;;;3.10;;
11829;SDS011;5972;42.134;24.718;2023-05-07T09:13:18;3.47;;;3.17;;
11829;SDS011;5972;42.134;24.718;2023-05-07T09:15:45;3.65;;;3.33;;
11829;SDS011;5972;42.134;24.718;2023-05-07T09:18:11;3.97;;;2.88;;
11829;SDS011;5972;42.134;24.718;2023-05-07T09:20:38;6.00;;;2.88;;
11829;SDS011;5972;42.134;24.718;2023-05-07T09:23:06;6.78;;;2.92;;
11829;SDS011;5972;42.134;24.718;2023-05-07T09:25:34;5.20;;;2.47;;
11829;SDS011;5972;42.134;24.718;2023-05-07T09:28:00;2.90;;;2.60;;
11829;SDS011;5972;42.134;24.718;2023-05-07T09:30:28;3.90;;;2.50;;
11829;SDS011;5972;42.134;24.718;2023-05-07T09:32:58;3.13;;;2.65;;
11829;SDS011;5972;42.134;24.718;2023-05-07T09:35:25;4.57;;;2.47;;
11829;SDS011;5972;42.134;24.718;2023-05-07T09:37:52;3.42;;;2.40;;
11829;SDS011;5972;42.134;24.718;2023-05-07T09:40:22;3.20;;;2.28;;
11829;SDS011;5972;42.134;24.718;2023-05-07T09:42:49;5.00;;;2.40;;
11829;SDS011;5972;42.134;24.718;2023-05-07T09:45:16;7.40;;;2.50;;
11829;SDS011;5972;42.134;24.718;2023-05-07T09:47:42;5.18;;;2.22;;
11829;SDS011;5972;42.134;24.718;2023-05-07T09:50:10;2.85;;;2.40;;
11829;SDS011;5972;42.134;24.718;2023-05-07T09:52:38;5.63;;;2.50;;
11829;SDS011;5972;42.134;24.718;2023-05-07T09:55:05;4.03;;;2.83;;
11829;SDS011;5972;42.134;24.718;2023-05-07T09:57:34;3.47;;;2.33;;
11829;SDS011;5972;42.134;24.718;2023-05-07T10:02:33;4.07;;;2.38;;
11829;SDS011;5972;42.134;24.718;2023-05-07T10:05:01;3.88;;;2.55;;
11829;SDS011;5972;42.134;24.718;2023-05-07T10:07:28;4.10;;;2.58;;
11829;SDS011;5972;42.134;24.718;2023-05-07T10:09:55;5.53;;;2.63;;
11829;SDS011;5972;42.134;24.718;2023-05-07T10:12:21;2.70;;;2.50;;
11829;SDS011;5972;42.134;24.718;2023-05-07T10:14:50;2.88;;;2.30;;
11829;SDS011;5972;42.134;24.718;2023-05-07T10:17:19;3.38;;;2.67;;
11829;SDS011;5972;42.134;24.718;2023-05-07T10:19:46;3.88;;;2.40;;
11829;SDS011;5972;42.134;24.718;2023-05-07T10:22:13;5.60;;;2.85;;
11829;SDS011;5972;42.134;24.718;2023-05-07T10:24:40;3.30;;;2.72;;
11829;SDS011;5972;42.134;24.718;2023-05-07T10:27:07;4.40;;;2.45;;
11829;SDS011;5972;42.134;24.718;2023-05-07T10:29:37;3.53;;;2.30;;
11829;SDS011;5972;42.134;24.718;2023-05-07T10:32:14;6.15;;;2.70;;
11829;SDS011;5972;42.134;24.718;2023-05-07T10:34:45;4.93;;;2.50;;
11829;SDS011;5972;42.134;24.718;2023-05-07T10:39:48;3.58;;;2.70;;
11829;SDS011;5972;42.134;24.718;2023-05-07T10:42:15;4.82;;;2.60;;
11829;SDS011;5972;42.134;24.718;2023-05-07T10:44:42;3.67;;;2.47;;
11829;SDS011;5972;42.134;24.718;2023-05-07T10:47:12;3.63;;;2.45;;
11829;SDS011;5972;42.134;24.718;2023-05-07T10:52:21;3.55;;;2.67;;
11829;SDS011;5972;42.134;24.718;2023-05-07T10:54:56;3.08;;;2.70;;
11829;SDS011;5972;42.134;24.718;2023-05-07T10:57:35;3.30;;;2.33;;
11829;SDS011;5972;42.134;24.718;2023-05-07T11:00:02;3.20;;;2.50;;
11829;SDS011;5972;42.134;24.718;2023-05-07T11:05:21;2.63;;;2.42;;
11829;SDS011;5972;42.134;24.718;2023-05-07T11:07:53;3.85;;;2.50;;
11829;SDS011;5972;42.134;24.718;2023-05-07T11:10:20;4.90;;;2.38;;
11829;SDS011;5972;42.134;24.718;2023-05-07T11:12:50;2.75;;;2.30;;
11829;SDS011;5972;42.134;24.718;2023-05-07T11:18:02;2.80;;;2.45;;
11829;SDS011;5972;42.134;24.718;2023-05-07T11:20:47;6.05;;;2.30;;
11829;SDS011;5972;42.134;24.718;2023-05-07T11:26:08;3.03;;;2.20;;
11829;SDS011;5972;42.134;24.718;2023-05-07T11:28:36;2.72;;;2.30;;
11829;SDS011;5972;42.134;24.718;2023-05-07T11:31:03;3.10;;;2.28;;
11829;SDS011;5972;42.134;24.718;2023-05-07T11:33:30;5.82;;;2.40;;
11829;SDS011;5972;42.134;24.718;2023-05-07T11:35:57;4.60;;;2.55;;
11829;SDS011;5972;42.134;24.718;2023-05-07T11:38:25;3.17;;;2.30;;
11829;SDS011;5972;42.134;24.718;2023-05-07T11:40:52;2.50;;;2.30;;
11829;SDS011;5972;42.134;24.718;2023-05-07T11:43:18;4.30;;;2.15;;
11829;SDS011;5972;42.134;24.718;2023-05-07T11:45:45;6.38;;;2.25;;
11829;SDS011;5972;42.134;24.718;2023-05-07T11:48:12;4.38;;;2.33;;
11829;SDS011;5972;42.134;24.718;2023-05-07T11:50:49;4.50;;;2.20;;
11829;SDS011;5972;42.134;24.718;2023-05-07T11:53:17;2.35;;;2.15;;
11829;SDS011;5972;42.134;24.718;2023-05-07T11:55:43;3.97;;;2.40;;
11829;SDS011;5972;42.134;24.718;2023-05-07T11:58:11;6.22;;;2.38;;
11829;SDS011;5972;42.134;24.718;2023-05-07T12:00:38;3.20;;;2.22;;
11829;SDS011;5972;42.134;24.718;2023-05-07T12:03:05;2.30;;;2.10;;
11829;SDS011;5972;42.134;24.718;2023-05-07T12:05:31;3.15;;;2.10;;
11829;SDS011;5972;42.134;24.718;2023-05-07T12:07:58;2.60;;;2.40;;
11829;SDS011;5972;42.134;24.718;2023-05-07T12:10:26;4.32;;;2.38;;
11829;SDS011;5972;42.134;24.718;2023-05-07T12:12:53;3.83;;;2.22;;
11829;SDS011;5972;42.134;24.718;2023-05-07T12:15:22;7.28;;;2.63;;
11829;SDS011;5972;42.134;24.718;2023-05-07T12:17:48;2.97;;;2.45;;
11829;SDS011;5972;42.134;24.718;2023-05-07T12:20:15;3.40;;;2.40;;
11829;SDS011;5972;42.134;24.718;2023-05-07T12:22:42;2.63;;;2.28;;
11829;SDS011;5972;42.134;24.718;2023-05-07T12:25:09;3.10;;;2.40;;
11829;SDS011;5972;42.134;24.718;2023-05-07T12:27:37;2.38;;;2.28;;
11829;SDS011;5972;42.134;24.718;2023-05-07T12:30:05;2.72;;;2.47;;
11829;SDS011;5972;42.134;24.718;2023-05-07T12:32:32;5.47;;;2.40;;
11829;SDS011;5972;42.134;24.718;2023-05-07T12:35:01;6.68;;;2.50;;
11829;SDS011;5972;42.134;24.718;2023-05-07T12:37:28;2.60;;;2.40;;
11829;SDS011;5972;42.134;24.718;2023-05-07T12:40:03;8.25;;;2.65;;
11829;SDS011;5972;42.134;24.718;2023-05-07T12:42:32;3.13;;;2.58;;
11829;SDS011;5972;42.134;24.718;2023-05-07T12:45:00;2.55;;;2.13;;
11829;SDS011;5972;42.134;24.718;2023-05-07T12:47:33;3.50;;;2.38;;
11829;SDS011;5972;42.134;24.718;2023-05-07T12:49:59;2.65;;;2.45;;
11829;SDS011;5972;42.134;24.718;2023-05-07T12:52:26;3.78;;;2.45;;
11829;SDS011;5972;42.134;24.718;2023-05-07T12:54:52;2.50;;;2.30;;
11829;SDS011;5972;42.134;24.718;2023-05-07T12:57:19;4.95;;;2.40;;
11829;SDS011;5972;42.134;24.718;2023-05-07T12:59:46;2.55;;;2.22;;
11829;SDS011;5972;42.134;24.718;2023-05-07T13:02:14;2.40;;;2.20;;
11829;SDS011;5972;42.134;24.718;2023-05-07T13:04:40;2.90;;;2.17;;
11829;SDS011;5972;42.134;24.718;2023-05-07T13:07:07;3.45;;;2.20;;
11829;SDS011;5972;42.134;24.718;2023-05-07T13:09:33;6.50;;;2.78;;
11829;SDS011;5972;42.134;24.718;2023-05-07T13:12:02;2.70;;;2.50;;
11829;SDS011;5972;42.134;24.718;2023-05-07T13:14:29;2.35;;;2.20;;
11829;SDS011;5972;42.134;24.718;2023-05-07T13:16:55;4.45;;;2.30;;
11829;SDS011;5972;42.134;24.718;2023-05-07T13:19:23;2.55;;;2.38;;
11829;SDS011;5972;42.134;24.718;2023-05-07T13:21:49;3.67;;;2.60;;
11829;SDS011;5972;42.134;24.718;2023-05-07T13:24:16;2.97;;;2.20;;
11829;SDS011;5972;42.134;24.718;2023-05-07T13:26:42;3.30;;;2.47;;
11829;SDS011;5972;42.134;24.718;2023-05-07T13:29:09;3.70;;;2.20;;
11829;SDS011;5972;42.134;24.718;2023-05-07T13:31:36;2.85;;;2.45;;
11829;SDS011;5972;42.134;24.718;2023-05-07T13:34:02;4.35;;;2.40;;
11829;SDS011;5972;42.134;24.718;2023-05-07T13:36:30;2.45;;;2.25;;
11829;SDS011;5972;42.134;24.718;2023-05-07T13:38:58;4.43;;;2.00;;
11829;SDS011;5972;42.134;24.718;2023-05-07T13:41:25;2.42;;;2.30;;
11829;SDS011;5972;42.134;24.718;2023-05-07T13:43:52;3.15;;;2.22;;
11829;SDS011;5972;42.134;24.718;2023-05-07T13:46:18;2.58;;;2.13;;
11829;SDS011;5972;42.134;24.718;2023-05-07T13:48:44;2.63;;;2.10;;
11829;SDS011;5972;42.134;24.718;2023-05-07T13:51:11;2.22;;;2.10;;
11829;SDS011;5972;42.134;24.718;2023-05-07T13:53:39;2.67;;;2.30;;
11829;SDS011;5972;42.134;24.718;2023-05-07T13:56:05;3.13;;;2.10;;
11829;SDS011;5972;42.134;24.718;2023-05-07T13:58:32;3.15;;;2.25;;
11829;SDS011;5972;42.134;24.718;2023-05-07T14:00:58;3.83;;;2.40;;
11829;SDS011;5972;42.134;24.718;2023-05-07T14:03:25;5.05;;;2.90;;
11829;SDS011;5972;42.134;24.718;2023-05-07T14:05:51;3.67;;;2.17;;
11829;SDS011;5972;42.134;24.718;2023-05-07T14:08:18;4.70;;;2.10;;
11829;SDS011;5972;42.134;24.718;2023-05-07T14:10:46;2.70;;;2.00;;
11829;SDS011;5972;42.134;24.718;2023-05-07T14:13:12;2.45;;;2.08;;
11829;SDS011;5972;42.134;24.718;2023-05-07T14:15:39;2.28;;;1.98;;
11829;SDS011;5972;42.134;24.718;2023-05-07T14:18:07;4.25;;;2.42;;
11829;SDS011;5972;42.134;24.718;2023-05-07T14:20:33;2.30;;;2.00;;
11829;SDS011;5972;42.134;24.718;2023-05-07T14:23:01;3.53;;;1.92;;
11829;SDS011;5972;42.134;24.718;2023-05-07T14:25:28;2.40;;;1.90;;
11829;SDS011;5972;42.134;24.718;2023-05-07T14:27:57;2.78;;;2.00;;
11829;SDS011;5972;42.134;24.718;2023-05-07T14:30:23;3.00;;;1.90;;
11829;SDS011;5972;42.134;24.718;2023-05-07T14:32:50;2.25;;;2.05;;
11829;SDS011;5972;42.134;24.718;2023-05-07T14:35:16;3.35;;;1.95;;
11829;SDS011;5972;42.134;24.718;2023-05-07T14:37:43;4.40;;;1.90;;
11829;SDS011;5972;42.134;24.718;2023-05-07T14:40:10;2.55;;;2.00;;
11829;SDS011;5972;42.134;24.718;2023-05-07T14:42:37;3.05;;;1.80;;
11829;SDS011;5972;42.134;24.718;2023-05-07T14:45:06;2.17;;;1.98;;
11829;SDS011;5972;42.134;24.718;2023-05-07T14:47:32;2.10;;;1.90;;
11829;SDS011;5972;42.134;24.718;2023-05-07T14:49:59;4.38;;;1.70;;
11829;SDS011;5972;42.134;24.718;2023-05-07T14:52:26;1.92;;;1.70;;
11829;SDS011;5972;42.134;24.718;2023-05-07T14:54:52;3.83;;;1.77;;
11829;SDS011;5972;42.134;24.718;2023-05-07T14:57:18;2.28;;;1.92;;
11829;SDS011;5972;42.134;24.718;2023-05-07T14:59:45;2.30;;;1.90;;
11829;SDS011;5972;42.134;24.718;2023-05-07T15:02:13;1.98;;;1.77;;
11829;SDS011;5972;42.134;24.718;2023-05-07T15:04:40;2.97;;;1.70;;